createdAt,value
2022-08-02T00:02:12.018Z,99954.80
2022-08-02T00:10:37.845Z,99953.40
2022-08-02T00:19:00.961Z,99961.79
2022-08-02T00:27:23.882Z,99959.22
2022-08-02T00:35:47.439Z,99963.99
2022-08-02T00:44:10.297Z,99969.95
2022-08-02T00:52:36.144Z,99971.27
2022-08-02T01:01:01.110Z,99969.27
2022-08-02T01:09:24.211Z,99972.58
2022-08-02T01:18:10.263Z,99978.11
2022-08-02T01:27:00.736Z,99972.20
2022-08-02T01:35:29.947Z,99966.32
2022-08-02T01:44:13.616Z,99969.86
2022-08-02T01:52:53.607Z,99977.30
2022-08-02T02:01:19.430Z,99974.48
2022-08-02T02:09:50.588Z,99973.82
2022-08-02T02:18:18.950Z,99975.22
2022-08-02T02:26:52.020Z,99981.95
2022-08-02T02:35:18.704Z,99981.14
2022-08-02T02:43:44.879Z,99986.60
2022-08-02T02:52:09.417Z,99988.20
2022-08-02T03:00:51.150Z,99993.52
2022-08-02T03:09:14.443Z,99988.27
2022-08-02T03:17:42.740Z,99991.16
2022-08-02T03:26:06.418Z,99994.86
2022-08-02T03:34:29.789Z,99991.60
2022-08-02T03:42:54.221Z,99995.61
2022-08-02T03:51:18.638Z,100004.20
2022-08-02T03:59:43.417Z,100004.57
2022-08-02T04:08:35.541Z,100013.06
2022-08-02T04:16:58.380Z,100034.02
2022-08-02T04:25:34.332Z,100032.12
2022-08-02T04:34:02.052Z,100037.65
2022-08-02T04:42:26.593Z,100041.77
2022-08-02T04:50:50.715Z,100046.16
2022-08-02T04:59:13.865Z,100051.47
2022-08-02T05:07:36.715Z,100052.27
2022-08-02T05:16:02.512Z,100055.54
2022-08-02T05:24:25.581Z,100066.44
2022-08-02T05:32:50.868Z,100068.70
2022-08-02T05:41:13.919Z,100074.39
2022-08-02T05:49:36.875Z,100087.21
2022-08-02T05:58:11.530Z,100092.14
2022-08-02T06:06:35.453Z,100093.05
2022-08-02T06:14:59.626Z,100096.64
2022-08-02T06:23:23.420Z,100103.98
2022-08-02T06:31:46.917Z,100109.84
2022-08-02T06:40:42.526Z,100120.55
2022-08-02T06:49:05.963Z,100131.41
2022-08-02T06:57:30.022Z,100131.20
2022-08-02T07:05:54.044Z,100138.55
2022-08-02T07:14:17.068Z,100142.25
2022-08-02T07:22:40.364Z,100142.98
2022-08-02T07:31:03.377Z,100134.95
2022-08-02T07:39:26.326Z,100128.70
2022-08-02T07:47:52.356Z,100133.83
2022-08-02T07:56:17.601Z,100134.82
2022-08-02T08:04:41.247Z,100136.64
2022-08-02T08:13:04.341Z,100136.23
2022-08-02T08:21:27.401Z,100137.17
2022-08-02T08:29:50.649Z,100137.98
2022-08-02T08:38:15.752Z,100143.69
2022-08-02T08:46:42.720Z,100144.58
2022-08-02T08:55:07.633Z,100144.05
2022-08-02T09:03:33.818Z,100155.08
2022-08-02T09:12:15.136Z,100154.39
2022-08-02T09:20:59.752Z,100159.21
2022-08-02T09:29:26.989Z,100168.83
2022-08-02T09:37:50.033Z,100167.74
2022-08-02T09:46:15.271Z,100172.12
2022-08-02T09:54:40.486Z,100177.61
2022-08-02T10:03:11.129Z,100166.77
2022-08-02T10:11:46.090Z,100165.77
2022-08-02T10:20:10.344Z,100160.31
2022-08-02T10:36:40.035Z,100157.25
2022-08-02T11:01:38.894Z,100151.84
2022-08-02T11:10:35.942Z,100165.39
2022-08-02T11:18:58.775Z,100165.62
2022-08-02T11:27:22.326Z,100160.84
2022-08-02T11:35:48.200Z,100157.39
2022-08-02T11:44:11.271Z,100155.13
2022-08-02T11:52:35.264Z,100154.04
2022-08-02T12:00:58.327Z,100145.97
2022-08-02T12:09:22.876Z,100150.55
2022-08-02T12:18:06.756Z,100145.41
2022-08-02T12:26:30.700Z,100149.20
2022-08-02T12:35:12.332Z,100153.83
2022-08-02T12:43:42.831Z,100162.05
2022-08-02T12:52:20.827Z,100165.19
2022-08-02T13:00:55.552Z,100165.77
2022-08-02T13:09:18.832Z,100165.02
2022-08-02T13:17:42.703Z,100166.95
2022-08-02T13:26:06.078Z,100170.24
2022-08-02T13:34:29.032Z,100169.15
2022-08-02T13:42:52.400Z,100169.81
2022-08-02T13:51:15.493Z,100171.87
2022-08-02T13:59:57.740Z,100176.77
2022-08-02T14:08:23.191Z,100178.13
2022-08-02T14:16:46.097Z,100176.83
2022-08-02T14:25:10.072Z,100175.30
2022-08-02T14:33:33.211Z,100172.81
2022-08-02T14:41:59.684Z,100172.17
2022-08-02T14:50:23.798Z,100167.00
2022-08-02T14:58:46.788Z,100174.80
2022-08-02T15:07:10.506Z,100171.80
2022-08-02T15:15:43.078Z,100167.07
2022-08-02T15:24:06.936Z,100168.69
2022-08-02T15:32:29.981Z,100160.11
2022-08-02T15:40:52.950Z,100168.45
2022-08-02T15:49:16.315Z,100168.81
2022-08-02T15:57:40.025Z,100172.77
2022-08-02T16:06:03.021Z,100171.25
2022-08-02T16:14:26.932Z,100173.11
2022-08-02T16:22:50.206Z,100179.54
2022-08-02T16:31:13.199Z,100186.05
2022-08-02T16:39:36.210Z,100190.71
2022-08-02T16:48:03.546Z,100194.30
2022-08-02T16:56:42.200Z,100194.95
2022-08-02T17:05:08.000Z,100205.20
2022-08-02T17:13:34.439Z,100208.09
2022-08-02T17:22:00.946Z,100202.46
2022-08-02T17:30:26.845Z,100210.07
2022-08-02T17:38:51.893Z,100213.49
2022-08-02T17:47:15.221Z,100210.55
2022-08-02T17:55:42.425Z,100215.66
2022-08-02T18:04:05.808Z,100225.27
2022-08-02T18:12:28.737Z,100227.16
2022-08-02T18:20:51.734Z,100231.84
2022-08-02T18:29:14.763Z,100242.77
2022-08-02T18:37:43.717Z,100241.04
2022-08-02T18:46:15.474Z,100246.49
2022-08-02T18:54:41.063Z,100252.45
2022-08-02T19:03:03.933Z,100264.73
2022-08-02T19:11:28.350Z,100273.28
2022-08-02T19:19:59.175Z,100275.56
2022-08-02T19:28:26.433Z,100276.95
2022-08-02T19:36:50.788Z,100274.95
2022-08-02T19:45:15.709Z,100273.72
2022-08-02T19:53:47.501Z,100270.16
2022-08-02T20:02:12.838Z,100274.98
2022-08-02T20:10:37.265Z,100280.56
2022-08-02T20:19:03.024Z,100280.27
2022-08-02T20:27:30.158Z,100276.13
2022-08-02T20:35:53.527Z,100275.21
2022-08-02T20:44:30.828Z,100283.27
2022-08-02T20:52:55.890Z,100277.05
2022-08-02T21:01:18.942Z,100275.39
2022-08-02T21:09:53.707Z,100272.68
2022-08-02T21:18:22.041Z,100279.39
2022-08-02T21:27:00.424Z,100289.42
2022-08-02T21:35:25.341Z,100292.19
2022-08-02T21:43:48.261Z,100294.22
2022-08-02T21:52:11.312Z,100295.44
2022-08-02T22:00:35.186Z,100299.26
2022-08-02T22:08:58.209Z,100300.77
2022-08-02T22:17:50.737Z,100301.96
2022-08-02T22:26:05.466Z,100302.96
2022-08-02T22:34:51.966Z,100302.01
2022-08-02T22:43:12.882Z,100302.55
2022-08-02T22:51:46.257Z,100304.04
2022-08-02T23:00:10.927Z,100307.26
2022-08-02T23:08:35.660Z,100308.88
2022-08-02T23:17:17.229Z,100307.00
2022-08-02T23:25:40.104Z,100308.59
2022-08-02T23:34:05.907Z,100305.23
2022-08-02T23:42:28.998Z,100308.30
2022-08-02T23:50:51.873Z,100309.46
2022-08-02T23:59:16.463Z,100309.13
